Time;durP1;ratioP1;P1;durP2;ratioP2;P2;SDS_P1;SDS_P2;PMS_P1;PMS_P2;Temp;Humidity;BMP_temperature;BMP_pressure;BME280_temperature;BME280_humidity;BME280_pressure;Samples;Min_cycle;Max_cycle;Signal;HPM_P1;HPM_P2
2023/05/29 00:01:00;;;;;;;5.13;2.73;;;;;;;17.11;100.00;99017.34;5073685;28;20223;-80
2023/05/29 00:03:27;;;;;;;3.47;2.37;;;;;;;17.15;100.00;99018.66;5074135;28;20210;-80
2023/05/29 00:05:53;;;;;;;4.10;2.50;;;;;;;17.19;100.00;99019.94;5073514;28;20248;-80
2023/05/29 00:08:22;;;;;;;4.37;2.70;;;;;;;17.14;100.00;99032.53;5074111;28;20232;-80
2023/05/29 00:10:48;;;;;;;13.17;3.47;;;;;;;17.16;100.00;99036.59;5073211;28;20220;-80
2023/05/29 00:13:15;;;;;;;5.47;2.97;;;;;;;17.14;100.00;99027.38;5073176;28;20207;-80
2023/05/29 00:15:42;;;;;;;4.73;3.00;;;;;;;17.09;100.00;99030.41;5073597;28;20220;-80
2023/05/29 00:18:09;;;;;;;7.90;2.50;;;;;;;17.09;100.00;99029.59;5073438;28;20210;-80
2023/05/29 00:20:36;;;;;;;3.67;2.37;;;;;;;17.09;100.00;99034.75;5073287;28;20227;-80
2023/05/29 00:23:04;;;;;;;3.77;2.57;;;;;;;17.03;100.00;99025.84;5073107;28;20202;-80
2023/05/29 00:25:32;;;;;;;7.33;3.17;;;;;;;17.00;100.00;99035.69;5073595;28;20218;-80
2023/05/29 00:28:00;;;;;;;10.63;2.80;;;;;;;16.99;100.00;99032.31;5072860;28;20237;-80
2023/05/29 00:30:26;;;;;;;3.80;2.67;;;;;;;17.01;100.00;99032.13;5073759;28;20241;-80
2023/05/29 00:32:53;;;;;;;11.33;3.03;;;;;;;17.04;100.00;99037.78;5072816;28;20203;-81
2023/05/29 00:35:21;;;;;;;6.40;3.00;;;;;;;17.06;100.00;99035.06;5072951;28;20228;-80
2023/05/29 00:37:48;;;;;;;6.03;2.90;;;;;;;17.05;100.00;99030.88;5073290;28;20203;-80
2023/05/29 00:40:14;;;;;;;3.93;2.80;;;;;;;17.04;100.00;99037.00;5073318;28;20218;-80
2023/05/29 00:42:42;;;;;;;4.67;2.70;;;;;;;17.02;100.00;99036.34;5072361;28;20237;-80
2023/05/29 00:45:10;;;;;;;5.90;3.00;;;;;;;16.86;100.00;99035.28;5072480;28;20280;-81
2023/05/29 00:47:37;;;;;;;5.67;3.23;;;;;;;16.82;100.00;99035.75;5073036;28;20241;-80
2023/05/29 00:50:05;;;;;;;4.20;3.07;;;;;;;16.87;100.00;99036.06;5072684;28;20217;-81
2023/05/29 00:52:33;;;;;;;3.80;2.30;;;;;;;16.87;100.00;99036.91;5073122;28;20207;-80
2023/05/29 00:55:02;;;;;;;7.30;2.70;;;;;;;16.85;100.00;99038.84;5072961;28;20283;-80
2023/05/29 00:57:29;;;;;;;4.37;2.87;;;;;;;16.86;100.00;99037.84;5072707;28;20216;-81
2023/05/29 00:59:59;;;;;;;5.27;2.73;;;;;;;16.82;100.00;99035.75;5073071;28;20276;-80
2023/05/29 01:02:29;;;;;;;3.07;2.10;;;;;;;16.75;100.00;99032.91;5072919;28;20203;-81
2023/05/29 01:04:56;;;;;;;5.63;3.27;;;;;;;16.74;100.00;99037.28;5072221;28;20273;-80
2023/05/29 01:07:23;;;;;;;3.77;2.40;;;;;;;16.73;100.00;99034.84;5072176;28;20267;-81
2023/05/29 01:09:49;;;;;;;4.60;2.50;;;;;;;16.74;100.00;99037.28;5072566;28;20306;-81
2023/05/29 01:12:27;;;;;;;4.73;3.07;;;;;;;16.73;100.00;99034.84;5072311;28;20205;-81
2023/05/29 01:15:10;;;;;;;7.17;2.90;;;;;;;16.70;100.00;99042.91;5072224;28;20539;-81
2023/05/29 01:17:44;;;;;;;5.43;2.80;;;;;;;16.66;100.00;99034.63;5072355;28;20204;-81
2023/05/29 01:20:22;;;;;;;3.53;2.43;;;;;;;16.68;100.00;99031.91;5072177;28;20253;-81
2023/05/29 01:23:11;;;;;;;5.00;3.07;;;;;;;16.70;100.00;99030.81;5072141;28;20261;-81
2023/05/29 01:25:57;;;;;;;3.80;2.57;;;;;;;16.69;100.00;99036.09;5071978;28;20220;-81
2023/05/29 01:28:28;;;;;;;4.70;2.60;;;;;;;16.70;100.00;99030.00;5072022;28;20236;-81
2023/05/29 01:30:55;;;;;;;3.57;2.53;;;;;;;16.70;100.00;99030.00;5071936;28;20302;-81
2023/05/29 01:33:22;;;;;;;4.30;2.40;;;;;;;16.68;100.00;99024.16;5072053;28;20280;-81
2023/05/29 01:35:49;;;;;;;7.13;3.20;;;;;;;16.65;100.00;99021.88;5071432;28;20212;-81
2023/05/29 01:38:16;;;;;;;7.20;2.73;;;;;;;16.67;100.00;99019.97;5071609;28;20288;-81
2023/05/29 01:40:42;;;;;;;4.87;3.17;;;;;;;16.66;100.00;99020.91;5071760;28;20220;-81
2023/05/29 01:43:10;;;;;;;6.57;2.90;;;;;;;16.62;100.00;99017.03;5072375;28;20209;-81
2023/05/29 01:45:38;;;;;;;6.13;3.53;;;;;;;16.60;100.00;99019.75;5071815;28;20324;-81
2023/05/29 01:48:06;;;;;;;3.83;2.50;;;;;;;16.55;100.00;99010.84;5071894;28;20254;-81
2023/05/29 01:50:35;;;;;;;4.90;2.90;;;;;;;16.50;100.00;99012.09;5072022;28;20224;-81
2023/05/29 01:53:02;;;;;;;5.07;2.63;;;;;;;16.45;100.00;99011.75;5071612;28;20665;-81
2023/05/29 01:55:29;;;;;;;8.40;2.93;;;;;;;16.42;100.00;99012.03;5071328;28;20227;-81
2023/05/29 01:57:56;;;;;;;9.80;3.50;;;;;;;16.39;100.00;99012.34;5071910;28;20399;-81
2023/05/29 02:00:23;;;;;;;6.87;3.30;;;;;;;16.36;100.00;99010.06;5071298;28;20216;-80
2023/05/29 02:02:52;;;;;;;5.07;2.90;;;;;;;16.32;100.00;99001.00;5071706;28;20306;-81
2023/05/29 02:05:18;;;;;;;9.70;3.10;;;;;;;16.27;100.00;98998.06;5070982;28;20272;-81
2023/05/29 02:07:46;;;;;;;6.87;3.00;;;;;;;16.24;100.00;98999.16;5071280;28;20243;-81
2023/05/29 02:10:13;;;;;;;8.87;3.13;;;;;;;16.21;100.00;99001.25;5071097;28;20702;-81
2023/05/29 02:12:39;;;;;;;6.13;3.37;;;;;;;16.19;100.00;99003.16;5070826;28;20203;-81
2023/05/29 02:15:08;;;;;;;7.53;2.87;;;;;;;16.16;100.00;99000.88;5071651;28;20223;-81
2023/05/29 02:17:34;;;;;;;5.37;3.10;;;;;;;16.11;100.00;99009.03;5070875;28;20253;-81
2023/05/29 02:20:04;;;;;;;4.63;2.90;;;;;;;16.08;100.00;99006.75;5070973;28;20221;-81
2023/05/29 02:22:31;;;;;;;5.40;3.17;;;;;;;16.05;100.00;99010.44;5071346;28;20289;-81
2023/05/29 02:24:58;;;;;;;4.50;3.13;;;;;;;16.05;100.00;99004.47;5070610;28;20224;-81
2023/05/29 02:27:24;;;;;;;4.60;3.20;;;;;;;16.02;100.00;99004.78;5071015;28;20264;-81
2023/05/29 02:29:51;;;;;;;4.87;2.73;;;;;;;15.99;100.00;99013.63;5070871;28;20215;-81
2023/05/29 02:32:18;;;;;;;4.20;3.30;;;;;;;15.98;100.00;99018.94;5070642;28;20211;-81
2023/05/29 02:34:46;;;;;;;4.77;2.53;;;;;;;15.95;100.00;99019.22;5070939;28;20243;-81
2023/05/29 02:37:15;;;;;;;6.23;2.63;;;;;;;15.95;100.00;99014.88;5071011;28;20560;-81
2023/05/29 02:39:42;;;;;;;7.87;2.93;;;;;;;15.97;100.00;99012.97;5070997;28;20222;-81
2023/05/29 02:42:09;;;;;;;10.03;3.10;;;;;;;15.93;100.00;99006.47;5070562;28;20596;-81
2023/05/29 02:44:35;;;;;;;6.03;2.63;;;;;;;15.90;100.00;99017.06;5070725;28;20195;-81
2023/05/29 02:47:02;;;;;;;6.97;2.70;;;;;;;15.92;100.00;99022.09;5070510;28;20213;-80
2023/05/29 02:49:29;;;;;;;6.60;3.30;;;;;;;15.91;100.00;99023.88;5070657;28;20235;-80
2023/05/29 02:51:56;;;;;;;5.07;3.23;;;;;;;15.91;100.00;99013.56;5070701;28;20626;-80
2023/05/29 02:54:25;;;;;;;8.37;2.93;;;;;;;15.93;100.00;99016.78;5071293;28;20219;-81
2023/05/29 02:56:52;;;;;;;4.07;2.93;;;;;;;15.93;100.00;99023.72;5070844;28;20233;-80
2023/05/29 02:59:19;;;;;;;8.60;3.53;;;;;;;15.95;100.00;99025.19;5070790;28;20208;-81
2023/05/29 03:01:47;;;;;;;9.17;3.23;;;;;;;15.99;100.00;99015.38;5070611;28;20218;-80
2023/05/29 03:04:14;;;;;;;4.77;3.17;;;;;;;16.00;100.00;99011.88;5070486;28;20297;-81
2023/05/29 03:06:41;;;;;;;5.23;3.03;;;;;;;16.05;100.00;99028.50;5069304;28;20740;-80
2023/05/29 03:09:07;;;;;;;7.17;2.93;;;;;;;16.12;100.00;99017.63;5070419;28;20234;-81
2023/05/29 03:11:37;;;;;;;9.90;3.27;;;;;;;16.13;100.00;99021.81;5070709;28;20237;-81
2023/05/29 03:14:04;;;;;;;6.30;3.70;;;;;;;16.12;100.00;99031.31;5071202;28;20202;-80
2023/05/29 03:16:31;;;;;;;5.77;3.50;;;;;;;16.13;100.00;99032.13;5070674;28;20803;-80
2023/05/29 03:18:58;;;;;;;5.20;3.07;;;;;;;16.14;100.00;99033.72;5070692;28;20210;-80
2023/05/29 03:21:25;;;;;;;5.57;3.30;;;;;;;16.15;100.00;99027.63;5070118;28;20221;-80
2023/05/29 03:23:52;;;;;;;6.47;3.57;;;;;;;16.18;100.00;99030.72;5070248;28;20824;-81
2023/05/29 03:26:19;;;;;;;4.80;2.80;;;;;;;16.21;100.00;99027.84;5070536;28;20216;-81
2023/05/29 03:28:47;;;;;;;5.47;3.13;;;;;;;16.24;100.00;99030.13;5070610;28;20245;-80
2023/05/29 03:31:14;;;;;;;8.50;4.03;;;;;;;16.30;100.00;99031.31;5070088;28;20686;-81
2023/05/29 03:33:41;;;;;;;5.97;3.57;;;;;;;16.34;100.00;99035.19;5070447;28;20584;-81
2023/05/29 03:36:08;;;;;;;4.87;2.57;;;;;;;16.37;100.00;99040.06;5070160;28;20218;-80
2023/05/29 03:38:35;;;;;;;5.67;3.70;;;;;;;16.44;100.00;99035.94;5069999;28;20209;-80
2023/05/29 03:41:02;;;;;;;5.50;3.20;;;;;;;16.50;100.00;99043.06;5070172;28;20223;-80
2023/05/29 03:43:29;;;;;;;4.87;2.97;;;;;;;16.58;100.00;99036.34;5070677;28;20204;-81
2023/05/29 03:45:57;;;;;;;6.10;3.33;;;;;;;16.71;100.00;99041.94;5070803;28;20477;-81
2023/05/29 03:48:24;;;;;;;6.23;3.13;;;;;;;16.77;100.00;99046.53;5070993;28;20612;-81
2023/05/29 03:50:51;;;;;;;4.57;3.27;;;;;;;16.84;100.00;99044.13;5070850;28;20219;-81
2023/05/29 03:53:17;;;;;;;9.17;3.40;;;;;;;16.95;100.00;99046.47;5070617;28;20508;-81
2023/05/29 03:55:44;;;;;;;5.30;3.33;;;;;;;17.04;100.00;99049.91;5071463;28;20250;-81
2023/05/29 03:58:12;;;;;;;5.87;3.43;;;;;;;17.09;100.00;99055.44;5070937;28;20275;-81
2023/05/29 04:00:39;;;;;;;5.67;3.23;;;;;;;17.18;100.00;99059.66;5070486;28;20714;-81
2023/05/29 04:03:07;;;;;;;7.20;3.70;;;;;;;17.21;100.00;99054.19;5070688;28;20210;-81
2023/05/29 04:05:34;;;;;;;4.23;2.83;;;;;;;17.26;100.00;99057.13;5070219;28;20225;-81
2023/05/29 04:08:04;;;;;;;6.10;3.70;;;;;;;17.34;100.00;99059.75;5070159;28;20207;-81
2023/05/29 04:10:33;;;;;;;5.80;3.13;;;;;;;17.36;100.00;99068.16;5070477;28;20728;-81
2023/05/29 04:13:00;;;;;;;9.93;3.90;;;;;;;17.41;100.00;99065.91;5070181;28;20244;-81
2023/05/29 04:15:28;;;;;;;7.67;3.47;;;;;;;17.45;100.00;99069.00;5069737;28;20211;-81
2023/05/29 04:17:55;;;;;;;7.00;3.20;;;;;;;17.48;100.00;99073.06;5071383;28;20207;-81
2023/05/29 04:20:23;;;;;;;7.20;3.70;;;;;;;17.53;100.00;99074.19;5073150;28;20218;-81
2023/05/29 04:22:50;;;;;;;6.13;3.70;;;;;;;17.57;100.00;99074.69;5073986;28;20204;-81
2023/05/29 04:25:17;;;;;;;6.60;3.67;;;;;;;17.61;100.00;99078.59;5073322;28;20301;-81
2023/05/29 04:27:48;;;;;;;4.83;3.43;;;;;;;17.65;100.00;99078.13;5072983;28;20217;-81
2023/05/29 04:30:16;;;;;;;9.03;3.63;;;;;;;17.71;100.00;99081.84;5073487;28;20268;-81
2023/05/29 04:32:43;;;;;;;6.40;3.83;;;;;;;17.70;100.00;99085.41;5073273;28;20584;-81
2023/05/29 04:35:10;;;;;;;5.67;3.27;;;;;;;17.77;100.00;99088.19;5073221;28;20215;-81
2023/05/29 04:37:39;;;;;;;8.70;3.73;;;;;;;17.85;100.00;99077.91;5072996;28;20202;-81
2023/05/29 04:40:09;;;;;;;5.43;3.50;;;;;;;17.97;100.00;99081.00;5072710;28;20211;-81
2023/05/29 04:42:36;;;;;;;5.93;3.57;;;;;;;18.03;100.00;99083.75;5073127;28;20254;-81
2023/05/29 04:45:04;;;;;;;5.47;3.30;;;;;;;18.22;100.00;99084.44;5073231;28;20222;-81
2023/05/29 04:47:32;;;;;;;10.70;3.60;;;;;;;18.26;100.00;99096.91;5072766;28;20200;-81
2023/05/29 04:50:00;;;;;;;6.17;3.93;;;;;;;18.42;100.00;99097.91;5072447;28;20236;-81
2023/05/29 04:52:27;;;;;;;4.27;3.17;;;;;;;18.52;100.00;99093.38;5072971;28;20203;-83
2023/05/29 04:54:58;;;;;;;10.93;3.50;;;;;;;18.54;100.00;99104.38;5072291;28;20585;-82
2023/05/29 04:57:25;;;;;;;9.27;4.17;;;;;;;18.54;100.00;99099.19;5072517;28;20613;-82
2023/05/29 04:59:52;;;;;;;5.07;3.13;;;;;;;18.65;100.00;99096.28;5072089;28;20728;-83
2023/05/29 05:02:19;;;;;;;5.47;3.63;;;;;;;18.72;100.00;99107.59;5072154;28;20277;-83
2023/05/29 05:04:46;;;;;;;6.20;3.23;;;;;;;18.86;100.00;99110.56;5072298;28;20212;-82
2023/05/29 05:07:15;;;;;;;5.47;3.70;;;;;;;19.05;100.00;99110.19;5071995;28;20200;-83
2023/05/29 05:09:42;;;;;;;5.63;3.60;;;;;;;19.16;100.00;99109.03;5071823;28;20245;-82
2023/05/29 05:12:10;;;;;;;5.53;3.30;;;;;;;19.30;100.00;99117.94;5072308;28;20202;-83
2023/05/29 05:14:37;;;;;;;4.77;3.40;;;;;;;19.39;100.00;99114.31;5072255;28;20666;-82
2023/05/29 05:17:04;;;;;;;5.63;3.27;;;;;;;19.40;100.00;99131.50;5071636;28;20705;-82
2023/05/29 05:19:31;;;;;;;4.30;3.00;;;;;;;19.49;100.00;99134.88;5071783;28;20212;-82
2023/05/29 05:21:58;;;;;;;6.87;3.10;;;;;;;19.56;100.00;99130.66;5071932;28;20210;-82
2023/05/29 05:24:25;;;;;;;4.20;2.83;;;;;;;19.75;100.00;99130.28;5071937;28;20299;-83
2023/05/29 05:26:52;;;;;;;4.57;3.20;;;;;;;19.95;100.00;99135.06;5071761;28;20689;-83
2023/05/29 05:29:20;;;;;;;4.23;3.17;;;;;;;20.04;100.00;99134.03;5070841;28;20238;-82
2023/05/29 05:31:47;;;;;;;5.00;2.87;;;;;;;20.16;100.00;99129.25;5071506;28;20266;-83
2023/05/29 05:34:14;;;;;;;4.13;2.67;;;;;;;20.18;100.00;99132.50;5071261;28;20201;-82
2023/05/29 05:36:41;;;;;;;3.73;2.53;;;;;;;20.29;100.00;99129.50;5071326;28;20259;-81
2023/05/29 05:39:08;;;;;;;4.53;3.10;;;;;;;20.40;100.00;99129.13;5072117;28;20202;-82
2023/05/29 05:41:34;;;;;;;4.87;2.97;;;;;;;20.43;100.00;99126.16;5071460;28;20219;-80
2023/05/29 05:44:01;;;;;;;4.10;2.43;;;;;;;20.39;100.00;99122.31;5071888;28;20568;-82
2023/05/29 05:46:29;;;;;;;4.47;2.70;;;;;;;20.34;100.00;99124.63;5071543;28;20215;-82
2023/05/29 05:48:57;;;;;;;4.80;3.10;;;;;;;20.25;100.00;99117.88;5071398;28;20257;-82
2023/05/29 05:51:24;;;;;;;3.20;2.47;;;;;;;20.36;100.00;99122.63;5070932;28;20226;-82
2023/05/29 05:53:51;;;;;;;4.17;3.07;;;;;;;20.48;100.00;99121.28;5071676;28;20607;-82
2023/05/29 05:56:18;;;;;;;4.73;2.90;;;;;;;20.70;100.00;99129.25;5071440;28;20647;-83
2023/05/29 05:58:45;;;;;;;6.37;3.37;;;;;;;21.01;100.00;99124.75;5071418;28;20650;-81
2023/05/29 06:01:12;;;;;;;6.23;3.60;;;;;;;21.07;100.00;99136.22;5071070;28;20218;-83
2023/05/29 06:03:40;;;;;;;4.10;2.63;;;;;;;21.36;100.00;99134.66;5071365;28;20206;-83
2023/05/29 06:06:08;;;;;;;3.33;2.57;;;;;;;21.44;100.00;99143.19;5071018;28;20288;-81
2023/05/29 06:08:35;;;;;;;4.20;2.87;;;;;;;21.42;100.00;99145.16;5071373;28;20270;-82
2023/05/29 06:11:02;;;;;;;3.80;2.40;;;;;;;21.39;100.00;99144.72;5071447;28;20228;-81
2023/05/29 06:13:29;;;;;;;4.40;2.80;;;;;;;21.28;100.00;99150.34;5071273;28;20280;-82
2023/05/29 06:15:55;;;;;;;3.77;2.63;;;;;;;21.20;100.00;99152.00;5070977;28;20215;-81
2023/05/29 06:18:23;;;;;;;10.43;2.90;;;;;;;21.05;100.00;99153.78;5071347;28;20301;-82
2023/05/29 06:20:51;;;;;;;3.20;2.43;;;;;;;20.95;100.00;99148.03;5071026;28;20261;-81
2023/05/29 06:23:18;;;;;;;3.73;2.67;;;;;;;20.77;100.00;99156.16;5071056;28;20726;-81
2023/05/29 06:25:45;;;;;;;3.23;2.30;;;;;;;20.66;100.00;99156.56;5071180;28;20635;-81
2023/05/29 06:28:12;;;;;;;3.50;2.50;;;;;;;20.65;100.00;99160.13;5071441;28;20222;-81
2023/05/29 06:30:40;;;;;;;6.10;2.73;;;;;;;20.61;100.00;99153.69;5070909;28;20238;-84
2023/05/29 06:33:06;;;;;;;3.40;2.33;;;;;;;20.52;100.00;99163.28;5071165;28;20762;-83
2023/05/29 06:35:33;;;;;;;3.93;2.23;;;;;;;20.49;100.00;99154.03;5070464;28;20712;-82
2023/05/29 06:38:02;;;;;;;3.70;2.60;;;;;;;20.49;100.00;99151.44;5071096;28;20266;-81
2023/05/29 06:40:29;;;;;;;5.53;2.90;;;;;;;20.49;100.00;99148.84;5071464;28;20298;-81
2023/05/29 06:42:55;;;;;;;3.10;2.17;;;;;;;20.62;100.00;99152.69;5071219;28;20372;-81
2023/05/29 06:45:22;;;;;;;5.27;3.23;;;;;;;20.79;100.00;99154.16;5070803;28;20237;-81
2023/05/29 06:47:49;;;;;;;8.03;2.87;;;;;;;21.06;100.00;99154.59;5071734;28;20670;-81
2023/05/29 06:50:16;;;;;;;3.37;2.80;;;;;;;21.07;100.00;99156.22;5070899;28;20646;-81
2023/05/29 06:52:42;;;;;;;4.27;3.07;;;;;;;21.05;100.00;99151.19;5071645;28;20202;-80
2023/05/29 06:55:11;;;;;;;3.97;2.37;;;;;;;20.86;100.00;99139.50;5071011;28;20220;-81
2023/05/29 06:57:38;;;;;;;3.93;2.93;;;;;;;20.90;100.00;99151.16;5070854;28;20585;-81
2023/05/29 07:00:06;;;;;;;3.73;2.63;;;;;;;20.92;100.00;99151.81;5071377;28;20214;-81
2023/05/29 07:02:33;;;;;;;3.78;2.70;;;;;;;20.93;100.00;99147.41;5071150;28;20395;-81
2023/05/29 07:05:00;;;;;;;4.73;2.90;;;;;;;20.83;100.00;99145.06;5070298;28;20222;-81
2023/05/29 07:07:27;;;;;;;3.87;2.57;;;;;;;20.84;100.00;99146.66;5070582;28;20210;-80
2023/05/29 07:09:54;;;;;;;6.03;3.00;;;;;;;20.77;100.00;99146.56;5070444;28;20777;-80
2023/05/29 07:12:22;;;;;;;3.63;2.90;;;;;;;20.87;100.00;99151.50;5070992;28;20205;-80
2023/05/29 07:14:49;;;;;;;5.03;3.03;;;;;;;20.91;100.00;99147.56;5071059;28;20287;-80
2023/05/29 07:17:16;;;;;;;4.33;2.80;;;;;;;20.78;100.00;99142.19;5071031;28;20673;-80
2023/05/29 07:19:43;;;;;;;3.90;2.70;;;;;;;20.80;100.00;99140.22;5070851;28;20600;-80
2023/05/29 07:22:10;;;;;;;3.40;2.63;;;;;;;20.74;100.00;99149.50;5071769;28;20289;-80
2023/05/29 07:24:37;;;;;;;5.57;2.87;;;;;;;20.72;100.00;99150.66;5071095;28;20210;-80
2023/05/29 07:27:03;;;;;;;4.13;2.93;;;;;;;20.71;100.00;99151.63;5070974;28;20267;-80
2023/05/29 07:29:32;;;;;;;3.50;2.80;;;;;;;20.75;100.00;99153.72;5070499;28;20283;-80
2023/05/29 07:31:59;;;;;;;5.67;2.83;;;;;;;20.79;100.00;99159.38;5070750;28;20270;-81
2023/05/29 07:34:26;;;;;;;3.73;2.77;;;;;;;20.86;100.00;99149.91;5070667;28;20212;-80
2023/05/29 07:37:00;;;;;;;5.80;3.17;;;;;;;21.05;100.00;99147.78;5070313;28;20215;-80
2023/05/29 07:39:27;;;;;;;5.03;3.33;;;;;;;21.12;100.00;99159.91;5070391;28;20239;-80
2023/05/29 07:41:54;;;;;;;11.03;3.00;;;;;;;21.22;100.00;99151.84;5069798;28;20286;-80
2023/05/29 07:44:21;;;;;;;4.47;2.77;;;;;;;21.55;100.00;99148.91;5069997;28;20256;-81
2023/05/29 07:46:49;;;;;;;5.70;3.15;;;;;;;21.73;100.00;99151.16;5070883;28;20252;-80
2023/05/29 07:49:16;;;;;;;4.33;3.20;;;;;;;21.96;100.00;99153.63;5070158;28;20642;-80
2023/05/29 07:51:43;;;;;;;3.50;2.58;;;;;;;21.96;100.00;99166.66;5069853;28;20218;-80
2023/05/29 07:54:10;;;;;;;4.35;2.75;;;;;;;21.78;100.00;99165.22;5074771;28;20228;-80
2023/05/29 07:56:37;;;;;;;4.32;3.10;;;;;;;21.67;100.00;99158.72;5073787;28;20217;-80
2023/05/29 07:59:04;;;;;;;3.65;2.47;;;;;;;21.67;100.00;99157.88;5074652;28;20577;-80
2023/05/29 08:01:31;;;;;;;3.83;2.50;;;;;;;22.01;100.00;99157.31;5074304;28;20222;-80
2023/05/29 08:03:59;;;;;;;4.20;2.90;;;;;;;22.30;100.00;99159.06;5075657;28;20202;-80
2023/05/29 08:06:25;;;;;;;4.50;2.75;;;;;;;22.72;100.00;99149.66;5073911;28;20309;-79
2023/05/29 08:08:52;;;;;;;4.25;2.85;;;;;;;23.22;100.00;99158.28;5074080;28;20195;-81
2023/05/29 08:11:19;;;;;;;4.95;3.17;;;;;;;23.59;99.98;99151.06;5073929;28;20899;-80
2023/05/29 08:13:46;;;;;;;4.43;2.72;;;;;;;23.83;98.27;99160.22;5074162;28;20210;-81
2023/05/29 08:16:14;;;;;;;5.00;2.83;;;;;;;24.09;100.00;99151.69;5074173;28;20219;-80
2023/05/29 08:18:41;;;;;;;5.03;2.67;;;;;;;24.47;96.49;99160.84;5073154;28;20210;-80
2023/05/29 08:21:10;;;;;;;5.35;3.03;;;;;;;24.58;95.89;99162.84;5073558;28;20292;-80
2023/05/29 08:23:37;;;;;;;4.00;2.70;;;;;;;24.68;87.62;99160.66;5073610;28;20199;-80
2023/05/29 08:26:04;;;;;;;3.78;2.90;;;;;;;24.53;89.31;99166.06;5073380;28;20721;-80
2023/05/29 08:28:30;;;;;;;4.88;3.13;;;;;;;24.89;93.10;99157.03;5073168;28;20217;-80
2023/05/29 08:30:57;;;;;;;5.03;2.92;;;;;;;25.01;88.36;99159.84;5073118;28;20242;-79
2023/05/29 08:33:24;;;;;;;5.00;2.80;;;;;;;24.63;82.60;99158.63;5073600;28;20205;-80
2023/05/29 08:35:51;;;;;;;4.03;2.72;;;;;;;24.66;86.30;99156.63;5073102;28;20522;-80
2023/05/29 08:38:20;;;;;;;4.57;2.90;;;;;;;24.91;88.14;99157.63;5073044;28;20237;-80
2023/05/29 08:40:49;;;;;;;4.38;2.83;;;;;;;25.01;92.77;99157.22;5073079;28;20223;-80
2023/05/29 08:43:18;;;;;;;4.95;3.10;;;;;;;24.99;88.57;99152.22;5072955;28;20640;-80
2023/05/29 08:45:46;;;;;;;5.07;3.13;;;;;;;24.87;84.91;99158.22;5073267;28;20222;-80
2023/05/29 08:48:13;;;;;;;4.70;3.00;;;;;;;24.97;84.86;99151.59;5073862;28;20211;-80
2023/05/29 08:50:45;;;;;;;4.25;2.60;;;;;;;24.94;89.45;99156.44;5073136;28;20241;-80
2023/05/29 08:53:14;;;;;;;4.97;3.10;;;;;;;25.05;90.47;99148.78;5073410;28;20203;-80
2023/05/29 08:55:42;;;;;;;4.53;2.80;;;;;;;25.19;84.21;99151.38;5073180;28;20246;-80
2023/05/29 08:58:10;;;;;;;7.32;3.03;;;;;;;25.51;88.03;99154.94;5073428;28;20203;-80
2023/05/29 09:00:37;;;;;;;3.95;2.75;;;;;;;25.74;88.92;99151.84;5073549;28;20231;-80
2023/05/29 09:03:04;;;;;;;5.28;3.53;;;;;;;25.48;85.94;99147.50;5073483;28;20206;-80
2023/05/29 09:05:32;;;;;;;5.07;3.15;;;;;;;25.47;86.20;99162.41;5072474;28;20214;-80
2023/05/29 09:07:59;;;;;;;5.90;2.80;;;;;;;25.41;86.15;99160.63;5072804;28;20352;-80
2023/05/29 09:10:27;;;;;;;3.92;2.83;;;;;;;24.99;84.02;99149.59;5072649;28;20235;-80
2023/05/29 09:12:55;;;;;;;4.32;2.90;;;;;;;25.10;87.96;99150.78;5072813;28;20202;-80
2023/05/29 09:15:24;;;;;;;5.70;3.22;;;;;;;25.21;85.84;99146.75;5072831;28;20296;-80
2023/05/29 09:17:52;;;;;;;5.43;2.67;;;;;;;25.00;84.04;99140.72;5072761;28;20264;-80
2023/05/29 09:20:23;;;;;;;5.30;3.25;;;;;;;25.06;89.06;99139.13;5072806;28;20649;-80
2023/05/29 09:22:54;;;;;;;3.70;2.90;;;;;;;25.35;87.12;99135.25;5072794;28;20212;-80
2023/05/29 09:25:23;;;;;;;4.47;3.10;;;;;;;25.22;83.86;99135.28;5072221;28;20653;-80
2023/05/29 09:27:53;;;;;;;3.17;2.63;;;;;;;25.34;85.71;99131.03;5072641;28;20219;-80
2023/05/29 09:30:35;;;;;;;5.72;3.65;;;;;;;25.52;89.16;99131.19;5072169;28;20708;-80
2023/05/29 09:33:03;;;;;;;5.43;2.97;;;;;;;25.55;81.82;99131.78;5072943;28;20579;-81
2023/05/29 09:35:34;;;;;;;4.47;2.92;;;;;;;25.50;82.63;99130.56;5072018;28;20219;-80
2023/05/29 09:38:02;;;;;;;5.78;3.13;;;;;;;25.39;84.48;99123.34;5072219;28;20199;-80
2023/05/29 09:40:31;;;;;;;5.28;3.25;;;;;;;25.62;87.63;99112.41;5071992;28;20237;-80
2023/05/29 09:43:04;;;;;;;5.63;3.42;;;;;;;25.47;83.65;99117.91;5072445;28;20195;-80
2023/05/29 09:45:31;;;;;;;5.13;3.42;;;;;;;25.40;84.36;99114.53;5071906;28;20215;-80
2023/05/29 09:48:00;;;;;;;5.65;3.70;;;;;;;25.12;78.89;99106.09;5072238;28;20206;-80
2023/05/29 09:50:27;;;;;;;3.95;2.72;;;;;;;24.90;85.83;99108.97;5071828;28;20675;-81
2023/05/29 09:52:55;;;;;;;5.03;3.30;;;;;;;24.81;86.03;99110.97;5072455;28;20208;-80
2023/05/29 09:55:25;;;;;;;7.80;2.90;;;;;;;24.65;86.48;99105.34;5071670;28;20222;-80
2023/05/29 09:57:54;;;;;;;6.03;3.33;;;;;;;24.54;86.03;99104.13;5072640;28;20286;-80
2023/05/29 10:00:21;;;;;;;5.32;3.03;;;;;;;24.36;87.62;99100.28;5073143;28;20597;-79
2023/05/29 10:02:49;;;;;;;4.75;2.95;;;;;;;24.36;90.12;99100.28;5073028;28;20207;-80
2023/05/29 10:05:17;;;;;;;3.88;2.67;;;;;;;24.19;87.72;99117.34;5072104;28;20218;-80
2023/05/29 10:07:47;;;;;;;4.90;3.05;;;;;;;24.03;88.76;99112.47;5072216;28;20260;-80
2023/05/29 10:10:15;;;;;;;2.95;2.60;;;;;;;23.78;92.72;99114.81;5072150;28;20776;-80
2023/05/29 10:12:48;;;;;;;4.63;3.25;;;;;;;23.36;96.60;99119.19;5071072;28;20199;-82
2023/05/29 10:15:18;;;;;;;5.03;3.00;;;;;;;23.03;100.00;99107.56;5070527;28;20211;-83
2023/05/29 10:17:58;;;;;;;5.07;3.13;;;;;;;22.71;100.00;99108.91;5071760;28;20207;-82
2023/05/29 10:20:29;;;;;;;4.68;3.25;;;;;;;22.52;100.00;99110.38;5070912;28;20252;-82
2023/05/29 10:23:00;;;;;;;4.28;2.60;;;;;;;22.34;100.00;99097.81;5071228;28;20574;-81
2023/05/29 10:25:28;;;;;;;5.38;2.85;;;;;;;22.25;100.00;99098.09;5071449;28;20226;-82
2023/05/29 10:27:56;;;;;;;4.05;2.20;;;;;;;22.05;100.00;99103.06;5071348;28;20207;-82
2023/05/29 10:30:32;;;;;;;3.40;2.45;;;;;;;21.97;100.00;99098.78;5070853;28;20751;-82
2023/05/29 10:33:21;;;;;;;3.45;2.55;;;;;;;21.90;100.00;99090.91;5071393;28;20214;-82
2023/05/29 10:35:56;;;;;;;4.18;2.55;;;;;;;21.81;100.00;99081.59;5070947;28;20218;-82
2023/05/29 10:38:23;;;;;;;3.85;2.80;;;;;;;21.85;100.00;99075.03;5071539;28;20206;-82
2023/05/29 10:40:50;;;;;;;6.40;2.83;;;;;;;21.92;100.00;99073.31;5070620;28;20285;-82
2023/05/29 10:43:39;;;;;;;4.55;3.08;;;;;;;22.00;100.00;99068.97;5070915;28;20203;-82
2023/05/29 10:46:06;;;;;;;4.30;2.55;;;;;;;21.97;100.00;99069.34;5066286;28;20254;-82
2023/05/29 10:48:50;;;;;;;6.75;3.45;;;;;;;21.98;100.00;99065.75;5070769;28;20209;-82
2023/05/29 10:51:32;;;;;;;4.45;3.75;;;;;;;22.08;100.00;99055.84;5069351;28;20295;-82
2023/05/29 10:53:59;;;;;;;4.93;3.13;;;;;;;22.23;100.00;99053.22;5070472;28;20218;-82
2023/05/29 10:56:30;;;;;;;5.82;3.45;;;;;;;22.30;100.00;99057.47;5070307;28;20222;-81
2023/05/29 10:59:00;;;;;;;4.55;3.28;;;;;;;22.40;100.00;99053.72;5070654;28;20260;-82
2023/05/29 11:01:29;;;;;;;4.75;3.50;;;;;;;22.46;100.00;99050.41;5070429;28;20218;-82
2023/05/29 11:04:33;;;;;;;8.70;3.55;;;;;;;22.55;100.00;99047.47;5070140;28;20289;-82
2023/05/29 11:07:06;;;;;;;5.40;3.30;;;;;;;22.80;100.00;99045.22;5070877;28;20215;-82
2023/05/29 11:09:35;;;;;;;4.35;3.30;;;;;;;22.92;100.00;99042.91;5070907;28;20190;-82
2023/05/29 11:12:23;;;;;;;5.93;3.70;;;;;;;23.06;100.00;99038.59;5069872;28;20235;-83
2023/05/29 11:14:56;;;;;;;4.80;3.03;;;;;;;23.27;100.00;99035.06;5070150;28;20734;-82
2023/05/29 11:17:30;;;;;;;5.95;3.83;;;;;;;23.46;100.00;99033.56;5070622;28;20629;-81
2023/05/29 11:19:59;;;;;;;5.13;3.60;;;;;;;23.75;100.00;99040.28;5070302;28;20600;-82
2023/05/29 11:22:54;;;;;;;6.53;3.75;;;;;;;24.04;100.00;99039.16;5070017;28;20198;-83
2023/05/29 11:25:22;;;;;;;5.88;3.35;;;;;;;24.27;100.00;99028.31;5070223;28;20862;-82
2023/05/29 11:27:50;;;;;;;6.38;3.65;;;;;;;24.58;100.00;99026.91;5071292;28;20207;-82
2023/05/29 11:30:17;;;;;;;5.05;2.83;;;;;;;24.70;100.00;99029.75;5073946;28;20260;-82
2023/05/29 11:32:46;;;;;;;4.50;3.50;;;;;;;24.86;98.58;99031.91;5073816;28;20658;-83